Time;durP1;ratioP1;P1;durP2;ratioP2;P2;SDS_P1;SDS_P2;PMS_P1;PMS_P2;Temp;Humidity;BMP_temperature;BMP_pressure;BME280_temperature;BME280_humidity;BME280_pressure;Samples;Min_cycle;Max_cycle;Signal;HPM_P1;HPM_P2
2022/03/28 00:02:15;;;;;;;10.52;5.35;;;6.50;99.90;;;;;;5095722;28;20134;-61
2022/03/28 00:04:41;;;;;;;6.32;5.00;;;6.50;99.90;;;;;;5113834;28;20142;-60
2022/03/28 00:07:06;;;;;;;9.55;5.22;;;6.60;99.90;;;;;;5077859;28;20104;-60
2022/03/28 00:09:32;;;;;;;10.95;5.65;;;6.60;99.90;;;;;;5095551;28;20111;-61
2022/03/28 00:11:58;;;;;;;11.57;6.10;;;6.60;99.90;;;;;;5113218;28;20079;-61
2022/03/28 00:14:24;;;;;;;11.25;5.65;;;6.60;99.90;;;;;;5113550;28;20052;-60
2022/03/28 00:16:50;;;;;;;13.23;6.05;;;6.60;99.90;;;;;;5112874;28;20187;-60
2022/03/28 00:19:16;;;;;;;12.10;5.70;;;6.60;99.90;;;;;;5095368;28;20079;-60
2022/03/28 00:21:42;;;;;;;8.40;6.00;;;6.60;99.90;;;;;;5095329;28;20043;-60
2022/03/28 00:24:07;;;;;;;8.85;5.22;;;6.60;99.90;;;;;;5094854;28;20044;-60
2022/03/28 00:26:35;;;;;;;7.75;4.93;;;6.60;99.90;;;;;;5095062;28;20070;-60
2022/03/28 00:29:01;;;;;;;9.77;5.18;;;6.60;99.90;;;;;;5112932;28;20118;-61
2022/03/28 00:31:26;;;;;;;10.13;5.30;;;6.50;99.90;;;;;;5078407;28;20131;-60
2022/03/28 00:33:52;;;;;;;8.25;5.03;;;6.50;99.90;;;;;;5095034;28;20448;-64
2022/03/28 00:36:18;;;;;;;6.32;4.90;;;6.50;99.90;;;;;;5113249;28;20039;-61
2022/03/28 00:38:44;;;;;;;6.50;4.60;;;6.50;99.90;;;;;;5113147;28;20533;-63
2022/03/28 00:41:10;;;;;;;8.40;4.70;;;6.40;99.90;;;;;;5094519;28;20626;-61
2022/03/28 00:43:43;;;;;;;6.97;4.68;;;6.40;99.90;;;;;;5113045;28;20090;-61
2022/03/28 00:46:09;;;;;;;6.57;4.57;;;6.40;99.90;;;;;;5094477;28;20055;-61
2022/03/28 00:48:34;;;;;;;6.78;4.60;;;6.40;99.90;;;;;;5094712;28;20397;-61
2022/03/28 00:51:01;;;;;;;7.70;4.60;;;6.40;99.90;;;;;;5094437;28;20051;-60
2022/03/28 00:53:27;;;;;;;9.35;4.50;;;6.40;99.90;;;;;;5112725;28;20052;-60
2022/03/28 00:55:53;;;;;;;8.13;5.45;;;6.30;99.90;;;;;;5112781;28;20404;-66
2022/03/28 00:58:19;;;;;;;7.10;5.18;;;6.30;99.90;;;;;;5077623;28;20046;-61
2022/03/28 01:00:45;;;;;;;5.25;4.03;;;6.40;99.90;;;;;;5112849;28;20134;-60
2022/03/28 01:03:10;;;;;;;7.30;4.88;;;6.40;99.90;;;;;;5094172;28;20127;-60
2022/03/28 01:05:37;;;;;;;7.00;4.50;;;6.40;99.90;;;;;;5112866;28;20100;-60
2022/03/28 01:08:04;;;;;;;10.38;4.80;;;6.40;99.90;;;;;;5094265;28;20048;-60
2022/03/28 01:10:30;;;;;;;9.10;5.03;;;6.40;99.90;;;;;;5112404;28;20066;-61
2022/03/28 01:12:57;;;;;;;10.57;5.40;;;6.40;99.90;;;;;;5112252;28;20105;-66
2022/03/28 01:15:23;;;;;;;11.65;5.18;;;6.40;99.90;;;;;;5112610;28;20062;-60
2022/03/28 01:18:07;;;;;;;10.85;5.20;;;6.40;99.90;;;;;;5112796;28;20044;-59
2022/03/28 01:20:35;;;;;;;12.18;5.00;;;6.40;99.90;;;;;;5112655;28;20054;-59
2022/03/28 01:23:00;;;;;;;10.43;5.32;;;6.40;99.90;;;;;;5112245;28;20131;-61
2022/03/28 01:25:29;;;;;;;9.52;5.68;;;6.40;99.90;;;;;;5094250;28;20118;-59
2022/03/28 01:27:56;;;;;;;10.60;6.00;;;6.50;99.90;;;;;;5094149;28;20050;-60
2022/03/28 01:30:23;;;;;;;9.38;5.47;;;6.40;99.90;;;;;;5111927;28;20083;-60
2022/03/28 01:32:49;;;;;;;17.33;6.13;;;6.50;99.90;;;;;;5094076;28;20052;-60
2022/03/28 01:35:35;;;;;;;12.07;6.28;;;6.40;99.90;;;;;;5093367;28;20583;-60
2022/03/28 01:38:05;;;;;;;9.93;6.05;;;6.40;99.90;;;;;;5111788;28;20054;-66
2022/03/28 01:40:33;;;;;;;12.00;6.47;;;6.40;99.90;;;;;;5112346;28;20043;-60
2022/03/28 01:42:59;;;;;;;11.07;6.15;;;6.40;99.90;;;;;;5094355;28;20090;-60
2022/03/28 01:45:25;;;;;;;12.00;6.07;;;6.40;99.90;;;;;;5076872;28;20488;-61
2022/03/28 01:47:51;;;;;;;9.27;6.60;;;6.40;99.90;;;;;;5077124;28;20370;-61
2022/03/28 01:50:17;;;;;;;13.38;7.03;;;6.40;99.90;;;;;;5111754;28;20143;-60
2022/03/28 01:52:43;;;;;;;9.30;6.45;;;6.40;99.90;;;;;;5093927;28;20048;-60
2022/03/28 01:55:10;;;;;;;7.97;6.30;;;6.30;99.90;;;;;;5111659;28;20044;-60
2022/03/28 01:57:40;;;;;;;7.97;6.05;;;6.30;99.90;;;;;;5111830;28;20048;-61
2022/03/28 02:00:09;;;;;;;10.27;5.88;;;6.30;99.90;;;;;;5111135;28;20493;-62
2022/03/28 02:02:34;;;;;;;8.63;5.97;;;6.20;99.90;;;;;;5093869;28;20112;-61
2022/03/28 02:05:00;;;;;;;9.02;5.30;;;6.20;99.90;;;;;;5093840;28;20043;-60
2022/03/28 02:07:26;;;;;;;8.65;5.43;;;6.20;99.90;;;;;;5093280;28;20427;-60
2022/03/28 02:09:51;;;;;;;9.60;5.80;;;6.10;99.90;;;;;;5093979;28;20043;-61
2022/03/28 02:12:17;;;;;;;8.48;5.95;;;6.20;99.90;;;;;;5111214;28;20124;-61
2022/03/28 02:14:43;;;;;;;10.52;6.15;;;6.10;99.90;;;;;;5111729;28;20059;-60
2022/03/28 02:17:09;;;;;;;16.20;6.88;;;6.10;99.90;;;;;;5093214;28;20105;-61
2022/03/28 02:19:35;;;;;;;13.65;6.53;;;6.00;99.90;;;;;;5111942;28;20126;-60
2022/03/28 02:22:01;;;;;;;8.75;6.63;;;6.00;99.90;;;;;;5111155;28;20088;-61
2022/03/28 02:24:26;;;;;;;13.57;7.38;;;6.00;99.90;;;;;;5111176;28;20264;-60
2022/03/28 02:26:54;;;;;;;14.00;6.78;;;6.00;99.90;;;;;;5111392;28;20043;-60
2022/03/28 02:29:20;;;;;;;17.98;7.40;;;6.00;99.90;;;;;;5111122;28;20168;-60
2022/03/28 02:31:46;;;;;;;12.88;7.38;;;6.00;99.90;;;;;;5111274;28;20502;-60
2022/03/28 02:34:11;;;;;;;13.25;7.10;;;6.00;99.90;;;;;;5092960;28;20136;-60
2022/03/28 02:36:39;;;;;;;12.70;6.55;;;6.00;99.90;;;;;;5111492;28;20047;-62
2022/03/28 02:39:05;;;;;;;11.05;7.57;;;5.90;99.90;;;;;;5111529;28;20413;-60
2022/03/28 02:41:31;;;;;;;8.63;5.57;;;5.90;99.90;;;;;;5092730;28;20611;-60
2022/03/28 02:43:56;;;;;;;10.95;5.90;;;5.90;99.90;;;;;;5111400;28;20043;-60
2022/03/28 02:46:22;;;;;;;9.48;6.07;;;5.80;99.90;;;;;;5110366;28;20094;-63
2022/03/28 02:48:48;;;;;;;9.48;5.43;;;5.80;99.90;;;;;;5111344;28;20428;-60
2022/03/28 02:51:14;;;;;;;9.55;5.90;;;5.90;99.90;;;;;;5110911;28;20044;-61
2022/03/28 02:53:39;;;;;;;10.50;5.50;;;5.70;99.90;;;;;;5093276;28;20131;-62
2022/03/28 02:56:05;;;;;;;10.07;5.95;;;5.70;99.90;;;;;;5093217;28;20043;-61
2022/03/28 02:58:31;;;;;;;8.88;5.00;;;5.80;99.90;;;;;;5110853;28;20707;-61
2022/03/28 03:00:57;;;;;;;6.07;3.95;;;5.70;99.90;;;;;;5111594;28;20050;-60
2022/03/28 03:03:23;;;;;;;6.78;4.10;;;5.70;99.90;;;;;;5110659;28;20404;-62
2022/03/28 03:05:51;;;;;;;8.48;4.55;;;5.70;99.90;;;;;;5111132;28;20051;-60
2022/03/28 03:08:17;;;;;;;8.63;4.53;;;5.70;99.90;;;;;;5110936;28;20044;-62
2022/03/28 03:10:44;;;;;;;8.60;5.53;;;5.70;99.90;;;;;;5076476;28;20373;-62
2022/03/28 03:13:10;;;;;;;10.90;5.45;;;5.70;99.90;;;;;;5110918;28;20390;-60
2022/03/28 03:15:38;;;;;;;10.07;5.43;;;5.70;99.90;;;;;;5110866;28;20039;-62
2022/03/28 03:18:04;;;;;;;7.22;5.15;;;5.70;99.90;;;;;;5111225;28;20094;-60
2022/03/28 03:20:34;;;;;;;8.52;5.43;;;5.70;99.90;;;;;;5110703;28;20404;-63
2022/03/28 03:23:00;;;;;;;14.77;5.70;;;5.70;99.90;;;;;;5111119;28;20089;-60
2022/03/28 03:25:26;;;;;;;13.07;5.88;;;5.70;99.90;;;;;;5110651;28;20043;-60
2022/03/28 03:27:52;;;;;;;9.38;5.53;;;5.70;99.90;;;;;;5110993;28;20067;-60
2022/03/28 03:30:19;;;;;;;8.43;5.15;;;5.70;99.90;;;;;;5110905;28;20044;-65
2022/03/28 03:32:45;;;;;;;7.47;5.18;;;5.70;99.90;;;;;;5111358;28;20048;-60
2022/03/28 03:35:11;;;;;;;8.57;5.03;;;5.60;99.90;;;;;;5114414;28;20075;-61
2022/03/28 03:37:37;;;;;;;6.40;4.47;;;5.70;99.90;;;;;;5113952;28;20083;-60
2022/03/28 03:40:04;;;;;;;7.97;4.57;;;5.60;99.90;;;;;;5114633;28;20400;-60
2022/03/28 03:42:31;;;;;;;6.05;4.05;;;5.60;99.90;;;;;;5113904;28;20052;-61
2022/03/28 03:44:58;;;;;;;7.10;4.20;;;5.60;99.90;;;;;;5114293;28;20122;-60
2022/03/28 03:47:24;;;;;;;6.35;4.00;;;5.50;99.90;;;;;;5113734;28;20048;-61
2022/03/28 03:49:50;;;;;;;5.88;3.80;;;5.50;99.90;;;;;;5114448;28;20100;-60
2022/03/28 03:52:16;;;;;;;5.93;3.70;;;5.50;99.90;;;;;;5114314;28;20043;-60
2022/03/28 03:54:42;;;;;;;5.20;3.05;;;5.60;99.90;;;;;;5113879;28;20044;-60
2022/03/28 03:57:08;;;;;;;6.22;3.00;;;5.50;99.90;;;;;;5096159;28;20366;-60
2022/03/28 03:59:34;;;;;;;5.18;3.10;;;5.50;99.90;;;;;;5113693;28;20101;-61
2022/03/28 04:01:59;;;;;;;5.50;3.45;;;5.50;99.90;;;;;;5113891;28;20035;-60
2022/03/28 04:04:25;;;;;;;6.28;3.35;;;5.50;99.90;;;;;;5094919;28;20070;-62
2022/03/28 04:06:51;;;;;;;5.88;3.40;;;5.50;99.90;;;;;;5095446;28;20039;-61
2022/03/28 04:09:16;;;;;;;5.15;2.72;;;5.60;99.90;;;;;;5095852;28;20058;-60
2022/03/28 04:11:42;;;;;;;5.57;2.90;;;5.60;99.90;;;;;;5113471;28;20051;-61
2022/03/28 04:14:08;;;;;;;4.63;2.72;;;5.60;99.90;;;;;;5113838;28;20091;-60
2022/03/28 04:16:34;;;;;;;5.10;2.90;;;5.60;99.90;;;;;;5095348;28;20086;-61
2022/03/28 04:19:00;;;;;;;4.40;2.88;;;5.60;99.90;;;;;;5095617;28;20044;-61
2022/03/28 04:21:26;;;;;;;4.75;2.67;;;5.70;99.90;;;;;;5094937;28;20066;-65
2022/03/28 04:23:52;;;;;;;4.32;2.60;;;5.60;99.90;;;;;;5113799;28;20055;-60
2022/03/28 04:26:18;;;;;;;5.35;3.10;;;5.60;99.90;;;;;;5078523;28;20040;-61
2022/03/28 04:28:43;;;;;;;3.40;2.20;;;5.60;99.90;;;;;;5112979;28;20043;-61
2022/03/28 04:31:10;;;;;;;3.90;2.30;;;5.60;99.90;;;;;;5113822;28;20104;-60
2022/03/28 04:33:36;;;;;;;3.35;2.10;;;5.50;99.90;;;;;;5112681;28;20048;-61
2022/03/28 04:36:02;;;;;;;3.95;2.15;;;5.60;99.90;;;;;;5113415;28;20044;-61
2022/03/28 04:38:28;;;;;;;3.65;2.03;;;5.60;99.90;;;;;;5113179;28;20054;-67
2022/03/28 04:40:54;;;;;;;4.10;2.45;;;5.50;99.90;;;;;;5095187;28;20044;-60
2022/03/28 04:43:20;;;;;;;3.95;2.45;;;5.50;99.90;;;;;;5113070;28;20039;-60
2022/03/28 04:45:46;;;;;;;5.15;2.85;;;5.50;99.90;;;;;;5094489;28;20039;-61
2022/03/28 04:48:12;;;;;;;5.95;3.03;;;5.50;99.90;;;;;;5113239;28;20039;-60
2022/03/28 04:50:38;;;;;;;5.15;2.90;;;5.40;99.90;;;;;;5112668;28;20142;-60
2022/03/28 04:53:04;;;;;;;5.57;3.60;;;5.40;99.90;;;;;;5113105;28;20050;-61
2022/03/28 04:55:30;;;;;;;6.90;4.30;;;5.30;99.90;;;;;;5113006;28;20050;-66
2022/03/28 04:57:55;;;;;;;6.57;4.72;;;5.30;99.90;;;;;;5094601;28;20052;-61
2022/03/28 05:00:22;;;;;;;7.88;5.10;;;5.30;99.90;;;;;;5113169;28;20058;-60
2022/03/28 05:02:47;;;;;;;8.38;5.40;;;5.20;99.90;;;;;;5094123;28;20556;-61
2022/03/28 05:05:14;;;;;;;10.70;5.97;;;5.30;99.90;;;;;;5094842;28;20150;-59
2022/03/28 05:07:40;;;;;;;9.50;6.25;;;5.30;99.90;;;;;;5112312;28;20046;-60
2022/03/28 05:10:07;;;;;;;9.63;6.43;;;5.40;99.90;;;;;;5112699;28;20039;-62
2022/03/28 05:12:34;;;;;;;10.20;6.60;;;5.30;99.90;;;;;;5112440;28;20051;-66
2022/03/28 05:15:01;;;;;;;13.57;7.28;;;5.30;99.90;;;;;;5112218;28;20066;-60
2022/03/28 05:17:30;;;;;;;9.10;5.85;;;5.30;99.90;;;;;;5112378;28;20094;-60
2022/03/28 05:19:57;;;;;;;10.02;6.68;;;5.40;99.90;;;;;;5112369;28;20086;-61
2022/03/28 05:22:23;;;;;;;14.07;7.20;;;5.40;99.90;;;;;;5112587;28;20401;-60
2022/03/28 05:24:54;;;;;;;11.25;6.78;;;5.40;99.90;;;;;;5093850;28;20097;-60
2022/03/28 05:27:20;;;;;;;10.48;7.13;;;5.70;99.90;;;;;;5094202;28;20054;-62
2022/03/28 05:29:47;;;;;;;10.23;6.63;;;5.30;99.90;;;;;;5094103;28;20051;-60
2022/03/28 05:32:13;;;;;;;10.52;6.85;;;5.30;99.90;;;;;;5094147;28;20048;-60
2022/03/28 05:34:39;;;;;;;14.32;7.28;;;5.30;99.90;;;;;;5111856;28;20090;-60
2022/03/28 05:37:08;;;;;;;8.68;6.13;;;5.30;99.90;;;;;;5112124;28;20035;-60
2022/03/28 05:39:35;;;;;;;10.40;6.75;;;5.30;99.90;;;;;;5111983;28;20126;-60
2022/03/28 05:42:01;;;;;;;10.15;6.63;;;5.30;99.90;;;;;;5111884;28;20175;-60
2022/03/28 05:44:27;;;;;;;10.93;7.15;;;5.30;99.90;;;;;;5112020;28;20047;-60
2022/03/28 05:46:53;;;;;;;11.20;6.35;;;5.30;99.90;;;;;;5111254;28;20470;-61
2022/03/28 05:49:27;;;;;;;10.10;7.15;;;5.30;99.90;;;;;;5111885;28;20043;-61
2022/03/28 05:51:53;;;;;;;12.27;7.93;;;5.20;99.90;;;;;;5093208;28;20400;-61
2022/03/28 05:54:19;;;;;;;11.68;8.55;;;5.30;99.90;;;;;;5111933;28;20048;-61
2022/03/28 05:56:45;;;;;;;12.35;8.68;;;5.30;99.90;;;;;;5092594;28;20048;-61
2022/03/28 05:59:11;;;;;;;10.45;7.43;;;5.30;99.90;;;;;;5111885;28;20043;-63
2022/03/28 06:01:38;;;;;;;13.60;8.80;;;5.40;99.90;;;;;;5093817;28;20051;-61
2022/03/28 06:04:05;;;;;;;16.65;9.60;;;5.40;99.90;;;;;;5093127;28;20058;-61
2022/03/28 06:06:31;;;;;;;12.05;9.10;;;5.40;99.90;;;;;;5093670;28;20047;-61
2022/03/28 06:08:57;;;;;;;10.50;8.27;;;5.40;99.90;;;;;;5093023;28;20054;-61
2022/03/28 06:11:23;;;;;;;11.95;8.60;;;5.40;99.90;;;;;;5111532;28;20047;-62
2022/03/28 06:13:49;;;;;;;15.60;7.72;;;5.40;99.90;;;;;;5110733;28;20134;-61
2022/03/28 06:16:14;;;;;;;10.38;8.07;;;5.40;99.90;;;;;;5092651;28;20055;-61
2022/03/28 06:18:40;;;;;;;10.32;7.78;;;5.40;99.90;;;;;;5111324;28;20039;-65
2022/03/28 06:21:07;;;;;;;10.07;6.55;;;5.40;99.90;;;;;;5111465;28;20078;-62
2022/03/28 06:23:34;;;;;;;8.60;6.60;;;5.40;99.90;;;;;;5093754;28;20065;-62
2022/03/28 06:26:00;;;;;;;8.13;6.40;;;5.40;99.90;;;;;;5111170;28;20439;-62
2022/03/28 06:28:26;;;;;;;10.73;6.63;;;5.50;99.90;;;;;;5111544;28;20044;-61
2022/03/28 06:30:51;;;;;;;11.63;7.15;;;5.50;99.90;;;;;;5111167;28;20078;-62
2022/03/28 06:33:17;;;;;;;9.48;7.20;;;5.40;99.90;;;;;;5093236;28;20051;-62
2022/03/28 06:35:45;;;;;;;8.52;6.70;;;5.50;99.90;;;;;;5111422;28;20054;-66
2022/03/28 06:38:11;;;;;;;8.60;6.78;;;5.50;99.90;;;;;;5093505;28;20051;-63
2022/03/28 06:40:37;;;;;;;8.15;7.05;;;5.60;99.90;;;;;;5111654;28;20047;-61
2022/03/28 06:43:03;;;;;;;12.63;7.82;;;5.60;99.90;;;;;;5110781;28;20052;-61
2022/03/28 06:45:29;;;;;;;7.38;6.03;;;5.70;99.90;;;;;;5111472;28;20114;-61
2022/03/28 06:47:56;;;;;;;9.00;6.30;;;5.70;99.90;;;;;;5110524;28;20093;-62
2022/03/28 06:50:24;;;;;;;9.77;6.82;;;5.70;99.90;;;;;;5092949;28;20438;-61
2022/03/28 06:52:50;;;;;;;8.48;6.63;;;5.80;99.90;;;;;;5110935;28;20049;-61
2022/03/28 06:55:16;;;;;;;10.65;7.15;;;5.80;99.90;;;;;;5111171;28;20083;-61
2022/03/28 06:57:41;;;;;;;11.02;7.47;;;5.80;99.90;;;;;;5111375;28;20086;-61
2022/03/28 07:00:10;;;;;;;11.43;7.90;;;5.80;99.90;;;;;;5111016;28;20385;-61
2022/03/28 07:02:36;;;;;;;14.13;9.43;;;5.90;99.90;;;;;;5093364;28;20096;-62
2022/03/28 07:05:07;;;;;;;11.73;9.15;;;6.00;99.90;;;;;;5110673;28;20051;-61
2022/03/28 07:07:59;;;;;;;19.13;8.68;;;6.00;99.90;;;;;;5077896;28;20098;-61
2022/03/28 07:10:24;;;;;;;12.63;9.60;;;6.00;99.90;;;;;;5091901;28;20138;-63
2022/03/28 07:12:53;;;;;;;11.48;8.07;;;6.00;99.90;;;;;;5114340;28;20122;-68
2022/03/28 07:15:19;;;;;;;9.45;7.30;;;6.10;99.90;;;;;;5114973;28;20378;-62
2022/03/28 07:17:54;;;;;;;11.30;7.43;;;6.10;99.90;;;;;;5079991;28;20127;-63
2022/03/28 07:20:28;;;;;;;12.95;8.45;;;6.10;99.90;;;;;;5114043;28;20066;-62
2022/03/28 07:22:54;;;;;;;15.80;9.90;;;6.10;99.90;;;;;;5114412;28;20145;-61
2022/03/28 07:25:21;;;;;;;14.48;10.57;;;6.20;99.90;;;;;;5114645;28;20044;-62
2022/03/28 07:27:47;;;;;;;13.95;10.55;;;6.20;99.90;;;;;;5114762;28;20066;-62
2022/03/28 07:30:14;;;;;;;16.05;9.55;;;6.20;99.90;;;;;;5114068;28;20053;-61
2022/03/28 07:32:41;;;;;;;12.55;9.13;;;6.30;99.90;;;;;;5114562;28;20043;-61
2022/03/28 07:35:08;;;;;;;14.10;9.23;;;6.30;99.90;;;;;;5114225;28;20521;-61
2022/03/28 07:37:34;;;;;;;15.93;10.85;;;6.30;99.90;;;;;;5079561;28;20086;-61
2022/03/28 07:40:01;;;;;;;11.48;9.30;;;6.30;99.90;;;;;;5095302;28;20533;-61
2022/03/28 07:42:28;;;;;;;11.93;8.70;;;6.40;99.90;;;;;;5096254;28;20118;-60
2022/03/28 07:44:56;;;;;;;13.20;10.45;;;6.40;99.90;;;;;;5096127;28;20516;-65
2022/03/28 07:47:25;;;;;;;18.15;12.60;;;6.40;99.90;;;;;;5096219;28;20051;-60
2022/03/28 07:49:55;;;;;;;23.15;13.75;;;6.50;99.90;;;;;;5114198;28;20059;-60
2022/03/28 07:52:21;;;;;;;17.77;13.40;;;6.50;99.90;;;;;;5113866;28;20101;-60
2022/03/28 07:54:48;;;;;;;18.63;12.85;;;6.50;99.90;;;;;;5096173;28;20504;-60
2022/03/28 07:57:15;;;;;;;16.13;12.35;;;6.50;99.90;;;;;;5113614;28;20118;-59
2022/03/28 07:59:43;;;;;;;16.08;11.63;;;6.50;99.90;;;;;;5111473;28;20185;-61
2022/03/28 08:02:10;;;;;;;21.80;10.88;;;6.60;99.90;;;;;;5110363;28;20050;-63
2022/03/28 08:04:36;;;;;;;12.98;10.30;;;6.50;99.90;;;;;;5078166;28;20055;-61
2022/03/28 08:07:08;;;;;;;12.38;9.80;;;6.60;99.90;;;;;;5093844;28;20054;-60
2022/03/28 08:09:35;;;;;;;16.45;11.80;;;6.60;99.90;;;;;;5113383;28;20055;-60
2022/03/28 08:12:01;;;;;;;15.43;12.18;;;6.60;99.90;;;;;;5093977;28;20052;-65
2022/03/28 08:14:26;;;;;;;16.27;11.60;;;6.60;99.90;;;;;;5111144;28;20140;-62
2022/03/28 08:16:53;;;;;;;14.20;10.77;;;6.70;99.90;;;;;;5076562;28;20060;-61
2022/03/28 08:19:19;;;;;;;14.70;11.15;;;6.70;99.90;;;;;;5091854;28;20277;-64
2022/03/28 08:21:44;;;;;;;17.83;11.20;;;6.80;99.90;;;;;;5112212;28;20105;-61
2022/03/28 08:24:11;;;;;;;17.67;11.63;;;6.80;99.90;;;;;;5092999;28;20058;-60
2022/03/28 08:26:37;;;;;;;15.15;11.02;;;6.80;99.90;;;;;;5111580;28;20119;-62
2022/03/28 08:29:04;;;;;;;14.82;11.70;;;6.80;99.90;;;;;;5111711;28;20086;-62
2022/03/28 08:31:30;;;;;;;17.60;11.55;;;6.90;99.90;;;;;;5112241;28;20052;-62
2022/03/28 08:33:56;;;;;;;17.27;12.98;;;6.90;99.90;;;;;;5111973;28;20150;-62
2022/03/28 08:36:22;;;;;;;18.83;12.77;;;6.90;99.90;;;;;;5091927;28;20058;-62
2022/03/28 08:38:48;;;;;;;17.63;13.25;;;6.90;99.90;;;;;;5111480;28;20051;-61
2022/03/28 08:41:14;;;;;;;17.95;13.18;;;6.90;99.90;;;;;;5111798;28;20048;-62
2022/03/28 08:43:41;;;;;;;17.88;13.77;;;6.90;99.90;;;;;;5111721;28;20044;-64
2022/03/28 08:46:08;;;;;;;16.88;11.65;;;7.00;99.90;;;;;;5112054;28;20055;-66
2022/03/28 08:48:39;;;;;;;19.63;13.80;;;7.00;99.90;;;;;;5113120;28;20442;-62
2022/03/28 08:51:05;;;;;;;17.80;13.32;;;7.10;99.90;;;;;;5112741;28;20104;-69
2022/03/28 08:53:31;;;;;;;17.55;13.20;;;7.10;99.90;;;;;;5113074;28;20130;-62
2022/03/28 08:55:57;;;;;;;17.83;12.73;;;7.10;99.90;;;;;;5113021;28;20044;-64
2022/03/28 08:58:22;;;;;;;17.23;12.55;;;7.20;99.90;;;;;;5112416;28;20047;-63
2022/03/28 09:00:48;;;;;;;15.75;12.27;;;7.30;99.90;;;;;;5112623;28;20042;-62
2022/03/28 09:03:14;;;;;;;16.52;12.35;;;7.30;99.90;;;;;;5093943;28;20040;-62
2022/03/28 09:05:41;;;;;;;15.40;12.77;;;7.30;99.90;;;;;;5111860;28;20393;-65
2022/03/28 09:08:09;;;;;;;17.05;12.80;;;7.30;99.90;;;;;;5093563;28;20051;-67
2022/03/28 09:10:35;;;;;;;19.30;13.30;;;7.30;99.90;;;;;;5112456;28;20484;-62
2022/03/28 09:13:10;;;;;;;16.75;12.73;;;7.30;99.90;;;;;;5076546;28;20078;-63
2022/03/28 09:15:43;;;;;;;;;;;7.40;99.90;;;;;;5112599;28;20058;-64
2022/03/28 09:18:19;;;;;;;18.80;12.48;;;7.40;99.90;;;;;;5077101;28;20443;-66
2022/03/28 09:20:49;;;;;;;14.43;11.18;;;7.50;99.90;;;;;;5093823;28;20043;-63
2022/03/28 09:23:30;;;;;;;13.35;10.23;;;7.60;99.90;;;;;;5093894;28;20058;-62
2022/03/28 09:25:57;;;;;;;14.57;9.85;;;7.50;99.90;;;;;;5111779;28;20086;-64
2022/03/28 09:28:47;;;;;;;13.20;10.45;;;7.50;99.90;;;;;;5076738;28;20047;-63
2022/03/28 09:31:31;;;;;;;12.90;9.40;;;7.60;99.90;;;;;;5111285;28;20054;-63
2022/03/28 09:34:04;;;;;;;14.80;9.65;;;7.50;99.90;;;;;;5112113;28;20043;-62
2022/03/28 09:36:34;;;;;;;13.70;10.25;;;7.50;99.90;;;;;;5110801;28;20530;-62
2022/03/28 09:39:01;;;;;;;13.65;10.07;;;7.60;99.90;;;;;;5111097;28;20050;-62
2022/03/28 09:41:30;;;;;;;13.70;10.95;;;7.60;99.90;;;;;;5111259;28;20044;-62
2022/03/28 09:43:56;;;;;;;15.57;10.52;;;7.70;99.90;;;;;;5111339;28;20051;-62
2022/03/28 09:46:32;;;;;;;13.55;10.23;;;7.70;99.90;;;;;;5111131;28;20047;-62
2022/03/28 09:48:59;;;;;;;14.45;10.23;;;7.80;99.90;;;;;;5093644;28;20058;-63
2022/03/28 09:51:30;;;;;;;15.60;10.02;;;7.90;99.90;;;;;;5093614;28;20052;-62
2022/03/28 09:53:58;;;;;;;14.30;10.57;;;7.90;99.90;;;;;;5111595;28;20126;-62
2022/03/28 09:56:24;;;;;;;15.68;10.70;;;7.90;99.90;;;;;;5111171;28;20048;-62
2022/03/28 09:59:03;;;;;;;15.52;10.55;;;8.00;99.90;;;;;;5111985;28;20051;-65
2022/03/28 10:01:32;;;;;;;13.00;10.43;;;8.00;99.90;;;;;;5111438;28;20130;-65
2022/03/28 10:04:05;;;;;;;14.45;11.18;;;8.10;99.90;;;;;;5111915;28;20047;-63
2022/03/28 10:06:35;;;;;;;16.50;11.23;;;8.10;99.90;;;;;;5111199;28;20039;-64
2022/03/28 10:09:02;;;;;;;17.70;11.00;;;8.10;99.90;;;;;;5093643;28;20052;-65
2022/03/28 10:11:28;;;;;;;17.15;12.43;;;8.20;99.90;;;;;;5093214;28;20082;-63
2022/03/28 10:13:56;;;;;;;18.48;11.98;;;8.20;99.90;;;;;;5093390;28;20056;-64
2022/03/28 10:16:22;;;;;;;14.15;11.27;;;8.20;99.90;;;;;;5111135;28;20055;-63
2022/03/28 10:18:50;;;;;;;15.07;11.23;;;8.20;99.90;;;;;;5111602;28;20040;-63
2022/03/28 10:21:26;;;;;;;14.43;11.60;;;8.20;99.90;;;;;;5111639;28;20052;-68
2022/03/28 10:23:59;;;;;;;17.05;11.60;;;8.30;99.90;;;;;;5111639;28;20130;-62
2022/03/28 10:26:29;;;;;;;16.27;11.63;;;8.30;99.90;;;;;;5092481;28;20086;-61
2022/03/28 10:29:08;;;;;;;14.65;10.80;;;8.40;99.90;;;;;;5111256;28;20093;-61
2022/03/28 10:31:55;;;;;;;18.00;11.82;;;8.40;99.90;;;;;;5092913;28;20044;-61
2022/03/28 10:34:52;;;;;;;17.27;11.45;;;8.40;99.90;;;;;;5111035;28;20047;-61
2022/03/28 10:37:48;;;;;;;14.00;11.57;;;8.50;99.90;;;;;;5092593;28;20032;-65
2022/03/28 10:40:25;;;;;;;15.95;11.93;;;8.60;99.90;;;;;;5111308;28;20400;-61
2022/03/28 10:42:52;;;;;;;14.38;11.48;;;8.70;99.90;;;;;;5112203;28;20044;-61
2022/03/28 10:45:21;;;;;;;20.33;11.02;;;8.80;99.90;;;;;;5096738;28;20052;-62
2022/03/28 10:47:50;;;;;;;18.88;11.48;;;8.90;99.90;;;;;;5114891;28;20044;-62
2022/03/28 10:50:20;;;;;;;16.95;11.63;;;8.70;99.90;;;;;;5096846;28;20090;-61
2022/03/28 10:53:10;;;;;;;18.52;11.65;;;8.90;99.90;;;;;;5080129;28;20533;-62
2022/03/28 10:55:44;;;;;;;15.65;11.20;;;9.00;99.90;;;;;;5113663;28;20046;-62
2022/03/28 10:58:11;;;;;;;;;;;9.10;99.90;;;;;;5097073;28;20051;-65
2022/03/28 11:00:37;;;;;;;16.27;12.00;;;9.10;99.90;;;;;;5114796;28;20365;-61
2022/03/28 11:03:03;;;;;;;18.25;12.07;;;9.10;99.90;;;;;;5114917;28;20055;-62
2022/03/28 11:05:31;;;;;;;16.17;12.20;;;9.10;99.90;;;;;;5114674;28;20039;-62
2022/03/28 11:08:30;;;;;;;15.27;11.35;;;9.00;99.90;;;;;;5114957;28;20083;-62
2022/03/28 11:11:33;;;;;;;17.70;12.07;;;9.00;99.90;;;;;;5115229;28;20086;-62
2022/03/28 11:14:10;;;;;;;16.00;12.30;;;9.10;99.90;;;;;;4978785;28;20061;-61
2022/03/28 11:16:40;;;;;;;15.77;11.95;;;9.20;99.90;;;;;;5101914;28;20044;-62
2022/03/28 11:19:33;;;;;;;15.02;11.52;;;9.20;99.90;;;;;;5114757;28;20040;-63
2022/03/28 11:22:05;;;;;;;19.13;12.43;;;9.30;99.90;;;;;;5080312;28;20135;-64
2022/03/28 11:24:58;;;;;;;14.88;11.50;;;9.40;99.90;;;;;;5095972;28;20390;-62
2022/03/28 11:27:34;;;;;;;20.25;12.23;;;9.40;99.90;;;;;;5114742;28;20050;-66
2022/03/28 11:30:05;;;;;;;16.67;13.10;;;9.40;99.90;;;;;;5095905;28;20062;-61
2022/03/28 11:32:33;;;;;;;14.07;12.05;;;9.40;99.90;;;;;;5095962;28;20040;-63
2022/03/28 11:34:59;;;;;;;17.05;12.77;;;9.40;99.90;;;;;;5079653;28;20056;-64
2022/03/28 11:37:27;;;;;;;17.65;12.32;;;9.50;99.90;;;;;;5079778;28;20047;-66
2022/03/28 11:40:07;;;;;;;16.50;12.45;;;9.70;99.90;;;;;;5079238;28;20563;-62
2022/03/28 11:42:35;;;;;;;18.15;12.30;;;9.90;99.90;;;;;;5113618;28;20055;-62
2022/03/28 11:45:08;;;;;;;18.98;12.32;;;10.10;99.90;;;;;;5096005;28;20050;-64
2022/03/28 11:47:39;;;;;;;16.00;11.68;;;10.20;99.90;;;;;;5095522;28;20498;-62
2022/03/28 11:50:09;;;;;;;16.77;12.48;;;10.40;99.90;;;;;;5095792;28;20400;-65
2022/03/28 11:52:36;;;;;;;17.00;12.50;;;10.50;99.90;;;;;;5113147;28;20493;-62
2022/03/28 11:55:16;;;;;;;15.25;12.38;;;10.70;99.90;;;;;;5094460;28;20055;-63
2022/03/28 12:00:32;;;;;;;17.92;11.82;;;10.70;99.90;;;;;;5113231;28;20056;-61
2022/03/28 12:02:59;;;;;;;14.23;12.13;;;10.90;99.90;;;;;;5078835;28;20040;-62
2022/03/28 12:05:42;;;;;;;18.20;12.25;;;10.90;99.90;;;;;;5095753;28;20135;-60
2022/03/28 12:08:14;;;;;;;16.90;11.68;;;10.90;99.90;;;;;;5095786;28;20040;-61
2022/03/28 12:10:49;;;;;;;12.63;10.18;;;10.90;99.90;;;;;;5113402;28;20404;-61
2022/03/28 12:13:16;;;;;;;15.27;11.60;;;10.90;99.90;;;;;;5095013;28;20051;-61
2022/03/28 12:15:46;;;;;;;15.65;12.05;;;10.90;99.90;;;;;;5091096;28;20056;-62
2022/03/28 12:18:16;;;;;;;13.63;11.25;;;11.00;99.90;;;;;;5093559;28;20055;-61
2022/03/28 12:20:45;;;;;;;16.90;11.23;;;11.10;99.90;;;;;;5093028;28;20059;-61
2022/03/28 12:23:12;;;;;;;15.13;11.32;;;11.20;99.90;;;;;;5093026;28;20047;-60
2022/03/28 12:25:43;;;;;;;15.63;10.85;;;11.30;99.90;;;;;;5092790;28;20119;-61
2022/03/28 12:28:18;;;;;;;16.17;10.98;;;11.30;99.90;;;;;;5092732;28;20611;-60
2022/03/28 12:30:52;;;;;;;15.13;10.20;;;11.40;99.90;;;;;;5092648;28;20123;-62
2022/03/28 12:33:26;;;;;;;13.80;11.10;;;11.40;99.90;;;;;;5092957;28;20051;-59
2022/03/28 12:35:58;;;;;;;14.07;10.10;;;11.40;99.90;;;;;;5092711;28;20048;-63
2022/03/28 12:38:32;;;;;;;12.63;9.68;;;11.30;99.90;;;;;;5093153;28;20040;-62
2022/03/28 12:41:04;;;;;;;14.13;9.25;;;11.40;99.90;;;;;;5092523;28;20469;-63
2022/03/28 12:43:31;;;;;;;12.95;9.70;;;11.30;99.90;;;;;;5091695;28;20056;-65
2022/03/28 12:46:03;;;;;;;12.75;9.50;;;11.20;99.90;;;;;;5089878;28;20044;-63
2022/03/28 12:48:44;;;;;;;12.38;9.38;;;11.20;99.90;;;;;;5092738;28;20047;-64
2022/03/28 12:51:11;;;;;;;11.32;9.32;;;11.00;99.90;;;;;;5092516;28;20048;-63
2022/03/28 12:53:39;;;;;;;11.68;9.40;;;11.10;99.90;;;;;;5090317;28;20052;-71
2022/03/28 12:56:15;;;;;;;13.77;10.00;;;11.20;99.90;;;;;;5092557;28;20044;-64